KLAX/LAX METAR and TAF weather

Enter ICAO airport designator
Station Type Date Time Source
KLAX METAR 2020/02/25 12:53 UTC NOAA

KLAX 251253Z 12003KT 10SM FEW003 FEW009 12/09 A3014 RMK AO2 SLP203 T01170094


Station Type Date Time Source
KLAX Decoded METAR 2020/02/25 12:53 UTC NOAA

LOS ANGELES INTERNTL AIRPORT, CA, United States (KLAX) 33-56N 118-23W 46M
Feb 25, 2020 - 07:53 AM EST / 2020.02.25 1253 UTC
Wind: from the ESE (120 degrees) at 3 MPH (3 KT):0
Visibility: 10 mile(s):0
Sky conditions: mostly clear
Temperature: 53.1 F (11.7 C)
Dew Point: 48.9 F (9.4 C)
Relative Humidity: 85%
Pressure (altimeter): 30.14 in. Hg (1020 hPa)
ob: KLAX 251253Z 12003KT 10SM FEW003 FEW009 12/09 A3014 RMK AO2 SLP203 T01170094
cycle: 13

Station Type Date Time Source
KLAX TAF 2020/02/25 12:27 UTC NOAA

TAF KLAX 251125Z 2512/2618 VRB03KT P6SM SKC
FM251300 09004KT P6SM SKC
FM251500 VRB03KT P6SM SKC
FM252000 26010KT P6SM SKC
FM260400 VRB03KT P6SM SKC
FM261400 08004KT P6SM SKC

Example: see airport list